sensor_id;sensor_type;location;lat;lon;timestamp;pressure;altitude;pressure_sealevel;temperature;humidity
71770;BME280;66386;52.122;5.420;2023-01-28T00:00:49;103134.56;;;2.15;82.34
71770;BME280;66386;52.122;5.420;2023-01-28T00:03:16;103134.50;;;2.14;82.11
71770;BME280;66386;52.122;5.420;2023-01-28T00:05:43;103132.72;;;2.11;81.92
71770;BME280;66386;52.122;5.420;2023-01-28T00:08:09;103130.19;;;2.11;81.70
71770;BME280;66386;52.122;5.420;2023-01-28T00:10:36;103133.53;;;2.10;81.46
71770;BME280;66386;52.122;5.420;2023-01-28T00:13:06;103130.06;;;2.08;81.40
71770;BME280;66386;52.122;5.420;2023-01-28T00:15:33;103141.03;;;2.07;81.44
71770;BME280;66386;52.122;5.420;2023-01-28T00:17:59;103140.97;;;2.05;81.27
71770;BME280;66386;52.122;5.420;2023-01-28T00:20:26;103140.13;;;2.05;81.04
71770;BME280;66386;52.122;5.420;2023-01-28T00:22:52;103130.78;;;2.04;81.02
71770;BME280;66386;52.122;5.420;2023-01-28T00:25:19;103136.69;;;2.04;80.97
71770;BME280;66386;52.122;5.420;2023-01-28T00:27:46;103137.53;;;2.03;80.92
71770;BME280;66386;52.122;5.420;2023-01-28T00:30:13;103144.31;;;2.04;81.04
71770;BME280;66386;52.122;5.420;2023-01-28T00:32:39;103138.44;;;2.05;81.08
71770;BME280;66386;52.122;5.420;2023-01-28T00:35:08;103141.84;;;2.06;81.25
71770;BME280;66386;52.122;5.420;2023-01-28T00:37:35;103145.19;;;2.05;81.29
71770;BME280;66386;52.122;5.420;2023-01-28T00:40:03;103138.38;;;2.04;81.04
71770;BME280;66386;52.122;5.420;2023-01-28T00:42:30;103142.66;;;2.05;81.25
71770;BME280;66386;52.122;5.420;2023-01-28T00:44:56;103141.84;;;2.06;81.24
71770;BME280;66386;52.122;5.420;2023-01-28T00:47:23;103134.25;;;2.06;80.98
71770;BME280;66386;52.122;5.420;2023-01-28T00:49:50;103131.75;;;2.07;81.13
71770;BME280;66386;52.122;5.420;2023-01-28T00:52:16;103135.94;;;2.07;81.23
71770;BME280;66386;52.122;5.420;2023-01-28T00:54:43;103142.72;;;2.06;81.34
71770;BME280;66386;52.122;5.420;2023-01-28T00:57:09;103138.44;;;2.05;81.35
71770;BME280;66386;52.122;5.420;2023-01-28T00:59:36;103139.31;;;2.06;81.40
71770;BME280;66386;52.122;5.420;2023-01-28T01:02:03;103140.97;;;2.05;81.60
71770;BME280;66386;52.122;5.420;2023-01-28T01:04:39;103131.72;;;2.06;81.57
71770;BME280;66386;52.122;5.420;2023-01-28T01:07:06;103129.91;;;2.03;81.36
71770;BME280;66386;52.122;5.420;2023-01-28T01:09:32;103127.38;;;2.03;81.71
71770;BME280;66386;52.122;5.420;2023-01-28T01:11:59;103121.38;;;2.01;81.52
71770;BME280;66386;52.122;5.420;2023-01-28T01:14:26;103124.78;;;2.02;81.49
71770;BME280;66386;52.122;5.420;2023-01-28T01:16:52;103125.66;;;2.02;81.69
71770;BME280;66386;52.122;5.420;2023-01-28T01:19:19;103125.53;;;1.99;81.21
71770;BME280;66386;52.122;5.420;2023-01-28T01:21:46;103127.28;;;2.00;81.19
71770;BME280;66386;52.122;5.420;2023-01-28T01:24:16;103124.75;;;2.00;81.53
71770;BME280;66386;52.122;5.420;2023-01-28T01:26:43;103133.16;;;1.99;81.39
71770;BME280;66386;52.122;5.420;2023-01-28T01:29:09;103128.88;;;1.98;81.32
71770;BME280;66386;52.122;5.420;2023-01-28T01:31:36;103129.72;;;1.97;81.14
71770;BME280;66386;52.122;5.420;2023-01-28T01:34:03;103128.03;;;1.98;81.25
71770;BME280;66386;52.122;5.420;2023-01-28T01:36:30;103133.09;;;1.98;81.10
71770;BME280;66386;52.122;5.420;2023-01-28T01:38:56;103137.38;;;1.99;81.18
71770;BME280;66386;52.122;5.420;2023-01-28T01:41:29;103127.97;;;1.96;81.08
71770;BME280;66386;52.122;5.420;2023-01-28T01:46:35;103134.63;;;1.94;80.98
71770;BME280;66386;52.122;5.420;2023-01-28T01:49:16;103133.75;;;1.92;80.85
71770;BME280;66386;52.122;5.420;2023-01-28T01:51:46;103144.72;;;1.92;80.87
71770;BME280;66386;52.122;5.420;2023-01-28T01:54:15;103141.34;;;1.92;80.75
71770;BME280;66386;52.122;5.420;2023-01-28T01:56:43;103148.09;;;1.91;80.63
71770;BME280;66386;52.122;5.420;2023-01-28T01:59:15;103143.81;;;1.90;80.26
71770;BME280;66386;52.122;5.420;2023-01-28T02:01:43;103147.09;;;1.88;80.20
71770;BME280;66386;52.122;5.420;2023-01-28T02:04:21;103146.31;;;1.89;80.31
71770;BME280;66386;52.122;5.420;2023-01-28T02:06:48;103148.72;;;1.86;79.93
71770;BME280;66386;52.122;5.420;2023-01-28T02:09:29;103144.53;;;1.86;79.72
71770;BME280;66386;52.122;5.420;2023-01-28T02:12:13;103136.06;;;1.86;79.68
71770;BME280;66386;52.122;5.420;2023-01-28T02:14:46;103144.53;;;1.86;79.31
71770;BME280;66386;52.122;5.420;2023-01-28T02:17:14;103153.88;;;1.87;79.20
71770;BME280;66386;52.122;5.420;2023-01-28T02:20:02;103149.53;;;1.85;79.14
71770;BME280;66386;52.122;5.420;2023-01-28T02:26:04;103148.63;;;1.83;78.94
71770;BME280;66386;52.122;5.420;2023-01-28T02:31:18;103156.19;;;1.81;78.78
71770;BME280;66386;52.122;5.420;2023-01-28T02:34:00;103152.69;;;1.79;78.67
71770;BME280;66386;52.122;5.420;2023-01-28T02:36:44;103144.31;;;1.80;78.61
71770;BME280;66386;52.122;5.420;2023-01-28T02:39:21;103145.09;;;1.79;78.46
71770;BME280;66386;52.122;5.420;2023-01-28T02:42:03;103152.69;;;1.79;78.59
71770;BME280;66386;52.122;5.420;2023-01-28T02:44:32;103156.88;;;1.77;78.67
71770;BME280;66386;52.122;5.420;2023-01-28T02:46:58;103153.44;;;1.77;78.37
71770;BME280;66386;52.122;5.420;2023-01-28T02:49:51;103160.19;;;1.76;78.32
71770;BME280;66386;52.122;5.420;2023-01-28T02:52:31;103151.75;;;1.76;78.51
71770;BME280;66386;52.122;5.420;2023-01-28T02:55:35;103155.06;;;1.74;78.36
71770;BME280;66386;52.122;5.420;2023-01-28T03:00:49;103157.59;;;1.74;78.18
71770;BME280;66386;52.122;5.420;2023-01-28T03:03:31;103153.34;;;1.73;78.21
71770;BME280;66386;52.122;5.420;2023-01-28T03:06:02;103139.75;;;1.71;77.98
71770;BME280;66386;52.122;5.420;2023-01-28T03:08:36;103136.28;;;1.69;77.83
71770;BME280;66386;52.122;5.420;2023-01-28T03:11:26;103141.44;;;1.71;78.11
71770;BME280;66386;52.122;5.420;2023-01-28T03:14:15;103139.69;;;1.70;78.26
71770;BME280;66386;52.122;5.420;2023-01-28T03:17:02;103144.78;;;1.70;78.30
71770;BME280;66386;52.122;5.420;2023-01-28T03:19:52;103145.56;;;1.69;78.19
71770;BME280;66386;52.122;5.420;2023-01-28T03:22:40;103151.50;;;1.69;78.34
71770;BME280;66386;52.122;5.420;2023-01-28T03:25:27;103148.16;;;1.70;78.26
71770;BME280;66386;52.122;5.420;2023-01-28T03:28:15;103146.41;;;1.69;78.31
71770;BME280;66386;52.122;5.420;2023-01-28T03:31:06;103148.03;;;1.67;78.24
71770;BME280;66386;52.122;5.420;2023-01-28T03:33:54;103147.19;;;1.67;78.21
71770;BME280;66386;52.122;5.420;2023-01-28T03:36:41;103153.13;;;1.67;78.14
71770;BME280;66386;52.122;5.420;2023-01-28T03:39:29;103142.88;;;1.64;77.90
71770;BME280;66386;52.122;5.420;2023-01-28T03:42:02;103148.78;;;1.65;78.14
71770;BME280;66386;52.122;5.420;2023-01-28T03:44:29;103147.03;;;1.62;78.30
71770;BME280;66386;52.122;5.420;2023-01-28T03:47:14;103140.16;;;1.60;78.52
71770;BME280;66386;52.122;5.420;2023-01-28T03:49:43;103147.78;;;1.60;78.19
71770;BME280;66386;52.122;5.420;2023-01-28T03:52:18;103150.34;;;1.61;78.40
71770;BME280;66386;52.122;5.420;2023-01-28T03:54:45;103154.47;;;1.59;77.65
71770;BME280;66386;52.122;5.420;2023-01-28T03:57:16;103157.91;;;1.60;77.37
71770;BME280;66386;52.122;5.420;2023-01-28T03:59:43;103154.47;;;1.59;77.10
71770;BME280;66386;52.122;5.420;2023-01-28T04:02:10;103146.88;;;1.59;77.14
71770;BME280;66386;52.122;5.420;2023-01-28T04:04:38;103146.88;;;1.59;77.21
71770;BME280;66386;52.122;5.420;2023-01-28T04:07:06;103151.03;;;1.57;77.15
71770;BME280;66386;52.122;5.420;2023-01-28T04:09:34;103159.38;;;1.54;76.73
71770;BME280;66386;52.122;5.420;2023-01-28T04:12:02;103153.53;;;1.55;76.83
71770;BME280;66386;52.122;5.420;2023-01-28T04:14:29;103157.75;;;1.55;76.91
71770;BME280;66386;52.122;5.420;2023-01-28T04:16:56;103155.16;;;1.53;77.04
71770;BME280;66386;52.122;5.420;2023-01-28T04:19:22;103164.34;;;1.51;76.98
71770;BME280;66386;52.122;5.420;2023-01-28T04:21:49;103172.88;;;1.53;77.04
71770;BME280;66386;52.122;5.420;2023-01-28T04:24:20;103174.53;;;1.53;77.04
71770;BME280;66386;52.122;5.420;2023-01-28T04:26:46;103169.34;;;1.50;76.70
71770;BME280;66386;52.122;5.420;2023-01-28T04:29:13;103175.28;;;1.50;76.73
71770;BME280;66386;52.122;5.420;2023-01-28T04:31:40;103179.50;;;1.50;76.95
71770;BME280;66386;52.122;5.420;2023-01-28T04:34:06;103188.00;;;1.52;76.83
71770;BME280;66386;52.122;5.420;2023-01-28T04:36:33;103192.97;;;1.49;76.45
71770;BME280;66386;52.122;5.420;2023-01-28T04:38:59;103188.59;;;1.45;76.23
71770;BME280;66386;52.122;5.420;2023-01-28T04:41:26;103193.66;;;1.45;76.40
71770;BME280;66386;52.122;5.420;2023-01-28T04:43:52;103188.59;;;1.45;76.42
71770;BME280;66386;52.122;5.420;2023-01-28T04:46:19;103189.44;;;1.45;76.25
71770;BME280;66386;52.122;5.420;2023-01-28T04:48:45;103180.94;;;1.43;76.32
71770;BME280;66386;52.122;5.420;2023-01-28T04:51:11;103180.84;;;1.42;76.32
71770;BME280;66386;52.122;5.420;2023-01-28T04:53:38;103179.31;;;1.45;76.07
71770;BME280;66386;52.122;5.420;2023-01-28T04:56:04;103181.00;;;1.45;76.10
71770;BME280;66386;52.122;5.420;2023-01-28T04:58:31;103179.19;;;1.42;76.29
71770;BME280;66386;52.122;5.420;2023-01-28T05:00:58;103174.94;;;1.41;76.30
71770;BME280;66386;52.122;5.420;2023-01-28T05:03:26;103171.53;;;1.41;76.30
71770;BME280;66386;52.122;5.420;2023-01-28T05:05:52;103168.06;;;1.38;76.18
71770;BME280;66386;52.122;5.420;2023-01-28T05:08:19;103160.47;;;1.38;76.38
71770;BME280;66386;52.122;5.420;2023-01-28T05:10:45;103171.47;;;1.39;76.41
71770;BME280;66386;52.122;5.420;2023-01-28T05:13:12;103168.94;;;1.39;76.61
71770;BME280;66386;52.122;5.420;2023-01-28T05:15:39;103173.13;;;1.38;77.10
71770;BME280;66386;52.122;5.420;2023-01-28T05:18:06;103163.94;;;1.41;77.17
71770;BME280;66386;52.122;5.420;2023-01-28T05:20:32;103160.53;;;1.40;77.09
71770;BME280;66386;52.122;5.420;2023-01-28T05:22:59;103158.00;;;1.40;77.03
71770;BME280;66386;52.122;5.420;2023-01-28T05:25:25;103163.13;;;1.42;77.19
71770;BME280;66386;52.122;5.420;2023-01-28T05:27:53;103168.19;;;1.42;77.33
71770;BME280;66386;52.122;5.420;2023-01-28T05:30:20;103169.91;;;1.43;77.21
71770;BME280;66386;52.122;5.420;2023-01-28T05:32:46;103160.59;;;1.42;77.25
71770;BME280;66386;52.122;5.420;2023-01-28T05:35:13;103163.94;;;1.41;77.28
71770;BME280;66386;52.122;5.420;2023-01-28T05:37:40;103171.59;;;1.42;77.40
71770;BME280;66386;52.122;5.420;2023-01-28T05:40:07;103178.25;;;1.40;77.55
71770;BME280;66386;52.122;5.420;2023-01-28T05:42:34;103175.72;;;1.40;77.57
71770;BME280;66386;52.122;5.420;2023-01-28T05:45:00;103173.97;;;1.37;77.76
71770;BME280;66386;52.122;5.420;2023-01-28T05:47:26;103172.16;;;1.35;77.44
71770;BME280;66386;52.122;5.420;2023-01-28T05:49:53;103172.97;;;1.34;77.62
71770;BME280;66386;52.122;5.420;2023-01-28T05:52:20;103170.38;;;1.32;77.49
71770;BME280;66386;52.122;5.420;2023-01-28T05:54:46;103172.84;;;1.31;77.37
71770;BME280;66386;52.122;5.420;2023-01-28T05:57:13;103166.91;;;1.30;76.98
71770;BME280;66386;52.122;5.420;2023-01-28T05:59:39;103168.50;;;1.28;76.75
71770;BME280;66386;52.122;5.420;2023-01-28T06:02:06;103168.41;;;1.25;77.06
71770;BME280;66386;52.122;5.420;2023-01-28T06:04:33;103166.75;;;1.26;76.98
71770;BME280;66386;52.122;5.420;2023-01-28T06:06:59;103168.44;;;1.27;76.81
71770;BME280;66386;52.122;5.420;2023-01-28T06:09:26;103162.34;;;1.21;76.86
71770;BME280;66386;52.122;5.420;2023-01-28T06:11:52;103165.69;;;1.20;76.73
71770;BME280;66386;52.122;5.420;2023-01-28T06:14:19;103172.50;;;1.21;77.22
71770;BME280;66386;52.122;5.420;2023-01-28T06:16:45;103174.13;;;1.21;77.21
71770;BME280;66386;52.122;5.420;2023-01-28T06:19:12;103179.16;;;1.19;76.82
71770;BME280;66386;52.122;5.420;2023-01-28T06:21:38;103176.56;;;1.18;77.02
71770;BME280;66386;52.122;5.420;2023-01-28T06:24:05;103179.09;;;1.18;76.93
71770;BME280;66386;52.122;5.420;2023-01-28T06:26:31;103172.44;;;1.20;77.19
71770;BME280;66386;52.122;5.420;2023-01-28T06:28:58;103172.50;;;1.21;77.38
71770;BME280;66386;52.122;5.420;2023-01-28T06:31:25;103173.34;;;1.22;77.41
71770;BME280;66386;52.122;5.420;2023-01-28T06:33:51;103169.97;;;1.21;77.36
71770;BME280;66386;52.122;5.420;2023-01-28T06:36:17;103170.75;;;1.20;77.65
71770;BME280;66386;52.122;5.420;2023-01-28T06:38:44;103177.50;;;1.20;77.65
71770;BME280;66386;52.122;5.420;2023-01-28T06:41:11;103182.56;;;1.20;77.68
71770;BME280;66386;52.122;5.420;2023-01-28T06:43:37;103180.88;;;1.20;77.85
71770;BME280;66386;52.122;5.420;2023-01-28T06:46:04;103182.56;;;1.20;78.08
71770;BME280;66386;52.122;5.420;2023-01-28T06:48:31;103186.69;;;1.18;77.73
71770;BME280;66386;52.122;5.420;2023-01-28T06:50:57;103196.03;;;1.19;77.68
71770;BME280;66386;52.122;5.420;2023-01-28T06:53:24;103196.75;;;1.16;77.61
71770;BME280;66386;52.122;5.420;2023-01-28T06:55:50;103197.44;;;1.12;77.57
71770;BME280;66386;52.122;5.420;2023-01-28T06:58:17;103201.63;;;1.12;77.63
71770;BME280;66386;52.122;5.420;2023-01-28T07:00:43;103204.97;;;1.11;77.76
71770;BME280;66386;52.122;5.420;2023-01-28T07:03:10;103210.09;;;1.12;77.90
71770;BME280;66386;52.122;5.420;2023-01-28T07:05:36;103212.56;;;1.11;77.77
71770;BME280;66386;52.122;5.420;2023-01-28T07:08:04;103206.66;;;1.10;77.89
71770;BME280;66386;52.122;5.420;2023-01-28T07:10:30;103209.19;;;1.10;78.12
71770;BME280;66386;52.122;5.420;2023-01-28T07:12:57;103206.59;;;1.09;77.96
71770;BME280;66386;52.122;5.420;2023-01-28T07:15:23;103204.84;;;1.08;78.03
71770;BME280;66386;52.122;5.420;2023-01-28T07:17:50;103202.25;;;1.06;77.89
71770;BME280;66386;52.122;5.420;2023-01-28T07:20:17;103214.84;;;1.04;77.71
71770;BME280;66386;52.122;5.420;2023-01-28T07:22:44;103216.53;;;1.04;77.83
71770;BME280;66386;52.122;5.420;2023-01-28T07:25:12;103219.00;;;1.02;77.93
71770;BME280;66386;52.122;5.420;2023-01-28T07:27:45;103223.13;;;1.00;77.72
71770;BME280;66386;52.122;5.420;2023-01-28T07:30:12;103221.31;;;0.98;77.45
71770;BME280;66386;52.122;5.420;2023-01-28T07:32:39;103212.03;;;0.97;77.17
71770;BME280;66386;52.122;5.420;2023-01-28T07:35:06;103214.56;;;0.97;77.52
71770;BME280;66386;52.122;5.420;2023-01-28T07:37:33;103220.47;;;0.97;77.46
71770;BME280;66386;52.122;5.420;2023-01-28T07:39:59;103228.06;;;0.97;77.58
71770;BME280;66386;52.122;5.420;2023-01-28T07:42:26;103234.88;;;0.98;77.64
71770;BME280;66386;52.122;5.420;2023-01-28T07:44:52;103234.06;;;0.99;77.37
71770;BME280;66386;52.122;5.420;2023-01-28T07:47:19;103227.34;;;1.00;77.60
71770;BME280;66386;52.122;5.420;2023-01-28T07:49:45;103237.47;;;1.00;77.71
71770;BME280;66386;52.122;5.420;2023-01-28T07:52:13;103245.06;;;1.00;77.55
71770;BME280;66386;52.122;5.420;2023-01-28T07:54:39;103243.38;;;1.00;77.48
71770;BME280;66386;52.122;5.420;2023-01-28T07:57:08;103238.38;;;1.02;77.61
71770;BME280;66386;52.122;5.420;2023-01-28T07:59:35;103248.56;;;1.03;78.09
71770;BME280;66386;52.122;5.420;2023-01-28T08:02:02;103245.25;;;1.04;77.61
71770;BME280;66386;52.122;5.420;2023-01-28T08:04:28;103240.19;;;1.04;77.85
71770;BME280;66386;52.122;5.420;2023-01-28T08:06:56;103240.25;;;1.06;77.86
71770;BME280;66386;52.122;5.420;2023-01-28T08:09:22;103243.63;;;1.07;78.07
71770;BME280;66386;52.122;5.420;2023-01-28T08:11:49;103241.97;;;1.07;78.02
71770;BME280;66386;52.122;5.420;2023-01-28T08:14:15;103242.91;;;1.09;77.99
71770;BME280;66386;52.122;5.420;2023-01-28T08:16:42;103243.78;;;1.10;77.88
71770;BME280;66386;52.122;5.420;2023-01-28T08:19:08;103243.84;;;1.11;78.14
71770;BME280;66386;52.122;5.420;2023-01-28T08:21:35;103243.97;;;1.14;78.40
71770;BME280;66386;52.122;5.420;2023-01-28T08:24:02;103251.63;;;1.16;78.23
71770;BME280;66386;52.122;5.420;2023-01-28T08:26:28;103252.47;;;1.16;77.94
71770;BME280;66386;52.122;5.420;2023-01-28T08:28:55;103253.44;;;1.18;78.06
71770;BME280;66386;52.122;5.420;2023-01-28T08:31:21;103263.56;;;1.18;78.16
71770;BME280;66386;52.122;5.420;2023-01-28T08:33:48;103256.88;;;1.20;78.59
71770;BME280;66386;52.122;5.420;2023-01-28T08:36:14;103265.31;;;1.21;78.22
71770;BME280;66386;52.122;5.420;2023-01-28T08:38:41;103269.59;;;1.22;78.38
71770;BME280;66386;52.122;5.420;2023-01-28T08:41:08;103257.06;;;1.25;78.23
71770;BME280;66386;52.122;5.420;2023-01-28T08:43:35;103265.59;;;1.27;78.23
71770;BME280;66386;52.122;5.420;2023-01-28T08:46:04;103265.72;;;1.30;78.50
71770;BME280;66386;52.122;5.420;2023-01-28T08:48:30;103266.75;;;1.35;78.07
71770;BME280;66386;52.122;5.420;2023-01-28T08:50:58;103273.56;;;1.36;78.49
71770;BME280;66386;52.122;5.420;2023-01-28T08:53:25;103277.84;;;1.37;78.34
71770;BME280;66386;52.122;5.420;2023-01-28T08:55:52;103281.34;;;1.41;78.18
71770;BME280;66386;52.122;5.420;2023-01-28T08:58:19;103290.69;;;1.42;78.22
71770;BME280;66386;52.122;5.420;2023-01-28T09:00:48;103295.88;;;1.45;78.13
71770;BME280;66386;52.122;5.420;2023-01-28T09:03:15;103284.06;;;1.46;78.17
71770;BME280;66386;52.122;5.420;2023-01-28T09:05:42;103284.19;;;1.49;78.25
71770;BME280;66386;52.122;5.420;2023-01-28T09:08:13;103284.31;;;1.52;78.29
71770;BME280;66386;52.122;5.420;2023-01-28T09:10:40;103293.66;;;1.53;77.88
71770;BME280;66386;52.122;5.420;2023-01-28T09:13:12;103299.78;;;1.58;77.66
71770;BME280;66386;52.122;5.420;2023-01-28T09:15:40;103281.22;;;1.59;77.49
71770;BME280;66386;52.122;5.420;2023-01-28T09:18:29;103294.97;;;1.64;77.69
71770;BME280;66386;52.122;5.420;2023-01-28T09:20:55;103295.19;;;1.70;77.61
71770;BME280;66386;52.122;5.420;2023-01-28T09:23:22;103303.03;;;1.77;77.93
71770;BME280;66386;52.122;5.420;2023-01-28T09:25:48;103300.72;;;1.81;77.78
71770;BME280;66386;52.122;5.420;2023-01-28T09:28:15;103296.56;;;1.83;77.46
71770;BME280;66386;52.122;5.420;2023-01-28T09:30:41;103309.28;;;1.85;77.09
71770;BME280;66386;52.122;5.420;2023-01-28T09:33:08;103302.75;;;1.90;77.28
71770;BME280;66386;52.122;5.420;2023-01-28T09:35:34;103298.63;;;1.94;77.27
71770;BME280;66386;52.122;5.420;2023-01-28T09:38:02;103314.59;;;1.91;76.97
71770;BME280;66386;52.122;5.420;2023-01-28T09:40:38;103321.56;;;1.97;76.94
71770;BME280;66386;52.122;5.420;2023-01-28T09:45:57;103318.31;;;1.99;76.40
71770;BME280;66386;52.122;5.420;2023-01-28T09:48:38;103323.50;;;2.02;75.92
71770;BME280;66386;52.122;5.420;2023-01-28T09:51:10;103325.41;;;2.08;76.38
71770;BME280;66386;52.122;5.420;2023-01-28T09:53:41;103309.31;;;2.07;76.11
71770;BME280;66386;52.122;5.420;2023-01-28T09:56:24;103309.19;;;2.04;76.16
71770;BME280;66386;52.122;5.420;2023-01-28T09:58:51;103325.00;;;1.97;76.31
71770;BME280;66386;52.122;5.420;2023-01-28T10:01:38;103324.00;;;1.94;76.62
71770;BME280;66386;52.122;5.420;2023-01-28T10:04:32;103327.03;;;2.06;77.02
71770;BME280;66386;52.122;5.420;2023-01-28T10:12:48;103328.63;;;2.49;75.71
71770;BME280;66386;52.122;5.420;2023-01-28T10:15:53;103332.28;;;2.56;75.38
71770;BME280;66386;52.122;5.420;2023-01-28T10:18:34;103318.00;;;2.59;75.28
71770;BME280;66386;52.122;5.420;2023-01-28T10:21:17;103325.97;;;2.69;74.92
71770;BME280;66386;52.122;5.420;2023-01-28T10:24:26;103310.31;;;2.81;75.01
71770;BME280;66386;52.122;5.420;2023-01-28T10:26:56;103301.25;;;2.89;74.57
71770;BME280;66386;52.122;5.420;2023-01-28T10:29:26;103309.72;;;2.88;74.86
71770;BME280;66386;52.122;5.420;2023-01-28T10:32:04;103313.25;;;2.93;74.56
71770;BME280;66386;52.122;5.420;2023-01-28T10:34:33;103305.00;;;2.99;74.57
71770;BME280;66386;52.122;5.420;2023-01-28T10:37:00;103300.91;;;3.04;74.17
71770;BME280;66386;52.122;5.420;2023-01-28T10:39:27;103303.38;;;3.01;73.74
71770;BME280;66386;52.122;5.420;2023-01-28T10:41:54;103306.78;;;3.01;73.25
71770;BME280;66386;52.122;5.420;2023-01-28T10:44:34;103308.78;;;3.10;72.84
71770;BME280;66386;52.122;5.420;2023-01-28T10:47:09;103299.66;;;3.17;73.66
71770;BME280;66386;52.122;5.420;2023-01-28T10:49:41;103288.84;;;3.22;73.64
71770;BME280;66386;52.122;5.420;2023-01-28T10:52:13;103289.03;;;3.28;73.31
71770;BME280;66386;52.122;5.420;2023-01-28T10:54:40;103284.25;;;3.36;73.06
71770;BME280;66386;52.122;5.420;2023-01-28T10:57:10;103276.81;;;3.42;73.06
71770;BME280;66386;52.122;5.420;2023-01-28T10:59:39;103282.84;;;3.46;72.70
71770;BME280;66386;52.122;5.420;2023-01-28T11:05:17;103261.88;;;3.53;72.16
71770;BME280;66386;52.122;5.420;2023-01-28T11:07:46;103251.75;;;3.55;72.18
71770;BME280;66386;52.122;5.420;2023-01-28T11:12:55;103237.34;;;3.54;72.81
71770;BME280;66386;52.122;5.420;2023-01-28T11:15:22;103239.97;;;3.57;72.76
71770;BME280;66386;52.122;5.420;2023-01-28T11:17:55;103242.41;;;3.54;71.72
71770;BME280;66386;52.122;5.420;2023-01-28T11:20:25;103222.31;;;3.61;71.98
71770;BME280;66386;52.122;5.420;2023-01-28T11:22:53;103198.78;;;3.69;71.88
71770;BME280;66386;52.122;5.420;2023-01-28T11:27:57;103189.13;;;3.86;71.40
71770;BME280;66386;52.122;5.420;2023-01-28T11:30:36;103201.72;;;3.82;70.77
71770;BME280;66386;52.122;5.420;2023-01-28T11:33:16;103200.69;;;3.76;70.58
71770;BME280;66386;52.122;5.420;2023-01-28T11:36:03;103183.75;;;3.76;70.63
71770;BME280;66386;52.122;5.420;2023-01-28T11:38:29;103179.66;;;3.81;70.81
71770;BME280;66386;52.122;5.420;2023-01-28T11:40:57;103178.03;;;3.83;70.62
71770;BME280;66386;52.122;5.420;2023-01-28T11:43:26;103168.00;;;3.90;70.45
71770;BME280;66386;52.122;5.420;2023-01-28T11:49:00;103174.75;;;3.88;69.64
71770;BME280;66386;52.122;5.420;2023-01-28T11:52:14;103186.56;;;3.86;69.88
71770;BME280;66386;52.122;5.420;2023-01-28T11:55:36;103181.41;;;3.84;69.15
71770;BME280;66386;52.122;5.420;2023-01-28T12:00:50;103192.38;;;3.81;69.71
71770;BME280;66386;52.122;5.420;2023-01-28T12:06:37;103205.25;;;3.86;69.72
71770;BME280;66386;52.122;5.420;2023-01-28T12:15:25;103198.88;;;4.00;68.87
71770;BME280;66386;52.122;5.420;2023-01-28T12:21:04;103203.59;;;3.88;68.38
71770;BME280;66386;52.122;5.420;2023-01-28T12:29:30;103208.81;;;3.93;68.35
71770;BME280;66386;52.122;5.420;2023-01-28T12:35:17;103207.53;;;4.07;68.71
71770;BME280;66386;52.122;5.420;2023-01-28T12:43:32;103195.13;;;4.18;68.63
71770;BME280;66386;52.122;5.420;2023-01-28T12:46:22;103186.44;;;4.11;68.14
71770;BME280;66386;52.122;5.420;2023-01-28T12:49:05;103186.31;;;4.07;68.01
71770;BME280;66386;52.122;5.420;2023-01-28T12:52:03;103182.22;;;4.12;68.29
71770;BME280;66386;52.122;5.420;2023-01-28T12:54:41;103175.50;;;4.14;68.72
71770;BME280;66386;52.122;5.420;2023-01-28T12:57:19;103172.06;;;4.12;67.70
71770;BME280;66386;52.122;5.420;2023-01-28T13:06:01;103146.63;;;4.13;68.02
71770;BME280;66386;52.122;5.420;2023-01-28T13:08:29;103134.06;;;4.19;68.21
71770;BME280;66386;52.122;5.420;2023-01-28T13:10:58;103124.66;;;4.17;67.99
71770;BME280;66386;52.122;5.420;2023-01-28T13:13:35;103117.84;;;4.16;68.30
71770;BME280;66386;52.122;5.420;2023-01-28T13:16:03;103117.00;;;4.15;68.25
71770;BME280;66386;52.122;5.420;2023-01-28T13:21:15;103120.31;;;4.13;67.78
71770;BME280;66386;52.122;5.420;2023-01-28T13:23:47;103121.09;;;4.10;67.52
71770;BME280;66386;52.122;5.420;2023-01-28T13:28:51;103125.16;;;4.04;68.20
71770;BME280;66386;52.122;5.420;2023-01-28T13:31:20;103128.56;;;4.04;67.95
71770;BME280;66386;52.122;5.420;2023-01-28T13:34:00;103116.75;;;4.06;68.00
71770;BME280;66386;52.122;5.420;2023-01-28T13:39:05;103120.91;;;4.04;68.18
71770;BME280;66386;52.122;5.420;2023-01-28T13:41:42;103120.03;;;4.02;67.96
71770;BME280;66386;52.122;5.420;2023-01-28T13:46:56;103131.88;;;4.01;68.42
71770;BME280;66386;52.122;5.420;2023-01-28T13:49:31;103136.09;;;4.01;68.69
71770;BME280;66386;52.122;5.420;2023-01-28T13:52:12;103131.78;;;3.98;68.86
71770;BME280;66386;52.122;5.420;2023-01-28T13:54:50;103125.03;;;3.99;68.87
71770;BME280;66386;52.122;5.420;2023-01-28T13:58:10;103113.06;;;3.95;68.75
71770;BME280;66386;52.122;5.420;2023-01-28T14:00:50;103116.41;;;3.94;69.01
71770;BME280;66386;52.122;5.420;2023-01-28T14:15:31;103153.56;;;3.87;69.11
71770;BME280;66386;52.122;5.420;2023-01-28T14:18:50;103160.25;;;3.85;69.30
71770;BME280;66386;52.122;5.420;2023-01-28T14:20:54;103155.16;;;3.85;69.38
71770;BME280;66386;52.122;5.420;2023-01-28T14:23:22;103147.56;;;3.87;69.12
71770;BME280;66386;52.122;5.420;2023-01-28T14:26:00;103138.28;;;3.87;69.19
71770;BME280;66386;52.122;5.420;2023-01-28T14:33:40;103123.84;;;3.86;69.03
71770;BME280;66386;52.122;5.420;2023-01-28T14:36:10;103131.38;;;3.83;68.83
71770;BME280;66386;52.122;5.420;2023-01-28T14:38:40;103129.69;;;3.83;68.90
71770;BME280;66386;52.122;5.420;2023-01-28T14:41:08;103133.88;;;3.81;68.88
71770;BME280;66386;52.122;5.420;2023-01-28T14:43:36;103134.78;;;3.83;69.00
71770;BME280;66386;52.122;5.420;2023-01-28T14:51:42;103134.44;;;3.71;70.21
71770;BME280;66386;52.122;5.420;2023-01-28T14:54:32;103135.25;;;3.70;70.35
71770;BME280;66386;52.122;5.420;2023-01-28T14:57:27;103135.06;;;3.64;70.37
71770;BME280;66386;52.122;5.420;2023-01-28T14:59:56;103141.75;;;3.60;70.54
71770;BME280;66386;52.122;5.420;2023-01-28T15:02:25;103155.38;;;3.62;70.31